Terminal Aerodrome Forecast
Issued by NWS

Home | Current Version | Previous Version | Graphics & Text | Print | Product List | Glossary On
Versions: 1 2 3 4 5 6 7 8 9 10 11 12 13 14 15 16 17 18 19 20 21 22 23 24 25 26 27 28 29 30 31 32 33 34 35
000
FTUS43 KLOT 180100 AAA
TAFDPA
TAF AMD
KDPA 180125Z 1801/1824 29012G20KT P6SM SCT030 OVC040
     FM180200 32014G21KT P6SM BKN025 OVC035
     FM180400 32012G19KT P6SM SCT025 BKN035 OVC050
     FM181000 34012G17KT P6SM BKN025
     FM181700 35013KT P6SM SCT025 BKN035
     FM182300 35007KT P6SM FEW030=

USA.gov is the U.S. government's official web portal to all federal, state and local government web resources and services.